Dunedin, New Zealand
Current Conditions -  °F | °C
As of 1:00 AM on Sunday 26 Oct 2014 (Local Time) from NZCH Reporting Station
Clear Clear  
Wind Chill: 39°   Ceiling: Unl
Heat Index: 39°   Visibility: 6mi
Dew Point: 37°   Wind: 1mph
Humidity: 93%   Direction: 360°N
Pressure: 29.8"   Gusts: NA
Location:  45.52°S, 170.3°E
Report Text: NZCH 251300Z AUTO 36001KT 9999 NCD 04/03 Q1009 NOSIG
Loading
Personal Weather Stations






























Interactive Weather Map
Tropical Storm Tracking
New forecast layout! Learn more

10-Day Weather Forecast

Advertisements
Track Severe Weather on mobile